Time;durP1;ratioP1;P1;durP2;ratioP2;P2;SDS_P1;SDS_P2;PMS_P1;PMS_P2;Temp;Humidity;BMP_temperature;BMP_pressure;BME280_temperature;BME280_humidity;BME280_pressure;Samples;Min_cycle;Max_cycle;Signal;HPM_P1;HPM_P2
2022/02/03 00:00:19;;;;;;;4.50;2.15;;;;;;;1.19;78.55;101380.66;5025182;28;20139;-23
2022/02/03 00:03:05;;;;;;;6.90;3.10;;;;;;;1.18;78.49;101378.88;5021955;28;20569;-24
2022/02/03 00:10:38;;;;;;;3.80;2.55;;;;;;;1.13;78.35;101389.09;5025814;28;20060;-23
2022/02/03 00:24:40;;;;;;;8.00;2.75;;;;;;;1.04;78.29;101378.31;5027979;28;20032;-24
2022/02/03 00:30:08;;;;;;;6.50;2.95;;;;;;;1.02;78.34;101365.25;5025979;28;20055;-23
2022/02/03 00:49:04;;;;;;;2.95;2.40;;;;;;;0.90;78.72;101368.22;5015567;28;20055;-24
2022/02/03 00:51:30;;;;;;;4.22;2.65;;;;;;;0.88;78.66;101375.09;5018761;28;20120;-24
2022/02/03 00:53:57;;;;;;;2.70;2.22;;;;;;;0.87;78.37;101371.59;5026647;28;20044;-24
2022/02/03 00:56:34;;;;;;;3.08;1.95;;;;;;;0.85;78.51;101368.06;5025505;28;20612;-23
2022/02/03 00:59:10;;;;;;;7.32;2.80;;;;;;;0.85;78.48;101367.16;5027336;28;20029;-24
2022/02/03 01:01:46;;;;;;;4.30;2.45;;;;;;;0.82;78.60;101361.84;5028405;28;20401;-24
2022/02/03 01:04:13;;;;;;;5.32;2.50;;;;;;;0.81;78.60;101379.16;5027020;28;20117;-25
2022/02/03 01:06:47;;;;;;;3.83;2.50;;;;;;;0.80;78.32;101377.34;5024749;28;20037;-23
2022/02/03 01:09:17;;;;;;;9.27;2.88;;;;;;;0.79;78.54;101388.56;5024879;28;20025;-23
2022/02/03 01:11:48;;;;;;;4.10;2.20;;;;;;;0.77;78.75;101391.09;5028672;28;20175;-23
2022/02/03 01:14:24;;;;;;;5.70;2.30;;;;;;;0.76;78.55;101383.22;5026355;28;20045;-24
2022/02/03 01:19:52;;;;;;;8.40;2.83;;;;;;;0.72;78.62;101382.22;5028026;28;20076;-24
2022/02/03 01:43:49;;;;;;;5.88;2.70;;;;;;;0.60;78.52;101369.59;5027125;28;20094;-23
2022/02/03 01:46:19;;;;;;;5.95;2.55;;;;;;;0.60;78.67;101372.19;5031865;28;20025;-23
2022/02/03 01:54:28;;;;;;;3.65;2.25;;;;;;;0.57;78.55;101340.91;5027253;28;20037;-23
2022/02/03 01:57:13;;;;;;;5.03;2.42;;;;;;;0.55;78.88;101337.38;4991771;28;20591;-24
2022/02/03 01:59:40;;;;;;;5.28;3.30;;;;;;;0.55;78.99;101333.88;5025755;28;20065;-24
2022/02/03 02:02:07;;;;;;;7.00;2.42;;;;;;;0.55;79.19;101336.47;5026046;28;20025;-23
2022/02/03 02:04:33;;;;;;;8.50;2.80;;;;;;;0.55;78.80;101326.09;5026782;28;20025;-23
2022/02/03 02:06:58;;;;;;;5.82;3.22;;;;;;;0.54;79.32;101319.13;5022706;28;20030;-23
2022/02/03 02:10:01;;;;;;;3.90;2.28;;;;;;;0.55;79.23;101323.50;5029770;28;20057;-24
2022/02/03 02:13:01;;;;;;;6.25;3.03;;;;;;;0.54;79.12;101322.63;5029985;28;20401;-23
2022/02/03 02:18:22;;;;;;;4.78;2.75;;;;;;;0.53;78.83;101320.81;5028243;28;20036;-23
2022/02/03 02:38:10;;;;;;;4.63;2.83;;;;;;;0.55;79.02;101294.94;5027495;28;20242;-23
2022/02/03 02:43:40;;;;;;;8.60;4.28;;;;;;;0.56;79.09;101281.16;5027606;28;20051;-24
2022/02/03 02:46:17;;;;;;;5.35;2.70;;;;;;;0.56;79.03;101270.78;5027864;28;20040;-23
2022/02/03 02:49:10;;;;;;;6.35;2.72;;;;;;;0.57;79.23;101273.41;5028851;28;20036;-23
2022/02/03 02:51:59;;;;;;;5.20;2.60;;;;;;;0.58;79.16;101269.09;5020577;28;20392;-23
2022/02/03 03:30:46;;;;;;;5.55;1.98;;;;;;;0.74;79.06;101229.09;5023952;28;20110;-23
2022/02/03 03:35:48;;;;;;;5.90;2.22;;;;;;;0.74;79.28;101221.28;5027159;28;20503;-22
2022/02/03 03:38:20;;;;;;;7.22;2.63;;;;;;;0.74;79.02;101219.56;5024371;28;20032;-22
2022/02/03 03:40:52;;;;;;;3.53;2.42;;;;;;;0.75;79.14;101221.34;5024837;28;20048;-22
2022/02/03 03:43:28;;;;;;;7.20;2.17;;;;;;;0.75;79.03;101208.38;5027787;28;20029;-22
2022/02/03 03:45:55;;;;;;;3.78;2.45;;;;;;;0.76;79.32;101217.03;5025218;28;20034;-22
2022/02/03 03:48:33;;;;;;;4.63;2.30;;;;;;;0.78;79.27;101218.00;5023984;28;20044;-22
2022/02/03 03:51:01;;;;;;;6.28;2.35;;;;;;;0.78;79.58;101212.81;5026704;28;20505;-23
2022/02/03 03:53:40;;;;;;;5.78;2.35;;;;;;;0.78;79.22;101215.41;5027367;28;20116;-22
2022/02/03 03:56:16;;;;;;;3.20;1.98;;;;;;;0.79;79.42;101209.38;5021588;28;20036;-22
2022/02/03 04:43:05;;;;;;;4.68;2.47;;;;;;;0.93;78.98;101203.84;5023305;28;20037;-23
2022/02/03 04:54:50;;;;;;;4.32;1.75;;;;;;;0.97;79.36;101195.34;5029142;28;20059;-22
2022/02/03 05:03:00;;;;;;;3.10;2.33;;;;;;;1.00;78.94;101201.53;5011775;28;20034;-25
2022/02/03 05:21:05;;;;;;;5.28;2.03;;;;;;;1.07;79.39;101176.66;5027032;28;20040;-22
2022/02/03 06:08:30;;;;;;;7.80;3.08;;;;;;;1.34;79.92;101147.38;5027709;28;20100;-22
2022/02/03 06:14:06;;;;;;;9.10;3.15;;;;;;;1.40;81.12;101129.38;5031008;28;20055;-22
2022/02/03 06:22:24;;;;;;;7.03;4.10;;;;;;;1.47;80.96;101120.06;5016059;28;20083;-22
2022/02/03 06:27:37;;;;;;;10.82;3.97;;;;;;;1.51;80.86;101110.69;5031902;28;20036;-22
2022/02/03 06:30:04;;;;;;;11.05;4.50;;;;;;;1.52;81.13;101104.66;5028704;28;20029;-23
2022/02/03 06:32:30;;;;;;;8.73;3.17;;;;;;;1.59;81.12;101113.53;5029946;28;20068;-26
2022/02/03 06:34:56;;;;;;;10.57;4.53;;;;;;;1.59;81.29;101105.72;5030435;28;20065;-22
2022/02/03 06:37:22;;;;;;;5.72;4.03;;;;;;;1.60;81.19;101098.00;5032106;28;20033;-22
2022/02/03 06:39:47;;;;;;;6.85;4.00;;;;;;;1.64;81.21;101099.88;5030079;28;20021;-23
2022/02/03 06:42:13;;;;;;;8.43;3.63;;;;;;;1.67;81.34;101096.50;5029658;28;20052;-23
2022/02/03 06:47:13;;;;;;;9.65;3.90;;;;;;;1.70;81.47;101091.38;5031257;28;20112;-22
2022/02/03 06:49:51;;;;;;;9.15;3.80;;;;;;;1.68;81.54;101080.06;5031720;28;20033;-22
2022/02/03 06:52:29;;;;;;;9.65;3.28;;;;;;;1.74;81.28;101087.19;5024603;28;20030;-22
2022/02/03 06:55:12;;;;;;;14.32;3.75;;;;;;;1.78;81.65;101094.25;5015050;28;20515;-22
2022/02/03 06:57:52;;;;;;;8.23;3.30;;;;;;;1.78;81.32;101079.56;5031963;28;20100;-22
2022/02/03 07:00:28;;;;;;;10.23;3.63;;;;;;;1.82;81.32;101082.22;5024091;28;20101;-22
2022/02/03 07:02:56;;;;;;;11.00;3.97;;;;;;;1.83;81.23;101087.47;4976305;28;1588761;-22
2022/02/03 07:05:22;;;;;;;7.60;3.22;;;;;;;1.85;80.84;101091.03;5031447;28;20100;-23
2022/02/03 07:07:48;;;;;;;8.50;3.90;;;;;;;1.86;80.58;101090.19;5018681;28;20128;-22
2022/02/03 07:10:14;;;;;;;15.35;4.75;;;;;;;1.88;80.57;101095.44;5031728;28;20454;-22
2022/02/03 07:12:40;;;;;;;10.10;4.18;;;;;;;1.90;80.59;101099.88;5030661;28;20105;-22
2022/02/03 07:15:08;;;;;;;12.18;3.75;;;;;;;1.90;80.60;101094.66;5032253;28;20373;-22
2022/02/03 07:17:34;;;;;;;6.93;3.55;;;;;;;1.91;80.34;101088.63;5027352;28;20449;-22
2022/02/03 07:20:03;;;;;;;7.25;3.90;;;;;;;1.92;80.69;101087.81;5031015;28;20022;-24
2022/02/03 07:22:29;;;;;;;5.63;3.33;;;;;;;1.94;80.43;101081.75;5030113;28;20241;-22
2022/02/03 07:24:54;;;;;;;8.13;4.07;;;;;;;1.96;80.54;101082.72;5031389;28;20389;-22
2022/02/03 07:27:21;;;;;;;7.05;3.25;;;;;;;1.97;80.43;101072.34;5032339;28;20072;-22
2022/02/03 07:29:47;;;;;;;10.15;4.63;;;;;;;1.98;80.17;101075.81;5030131;28;20065;-22
2022/02/03 07:32:12;;;;;;;6.68;3.55;;;;;;;2.00;80.08;101071.56;5029801;28;20084;-22
2022/02/03 07:34:39;;;;;;;14.38;4.30;;;;;;;2.01;80.45;101073.34;5029487;28;20501;-22
2022/02/03 07:37:05;;;;;;;6.03;4.00;;;;;;;2.01;80.39;101073.34;5030746;28;20142;-22
2022/02/03 07:39:30;;;;;;;5.93;3.80;;;;;;;2.03;80.48;101069.03;5032009;28;20128;-22
2022/02/03 07:41:56;;;;;;;7.70;3.55;;;;;;;2.04;80.58;101079.50;5031219;28;20100;-22
2022/02/03 07:44:21;;;;;;;13.38;6.38;;;;;;;2.05;80.41;101070.88;5030135;28;20033;-23
2022/02/03 07:46:47;;;;;;;9.48;4.20;;;;;;;2.08;80.50;101069.19;5031241;28;20095;-22
2022/02/03 07:49:13;;;;;;;10.82;4.25;;;;;;;2.07;80.26;101057.94;5031184;28;20048;-22
2022/02/03 07:51:38;;;;;;;7.82;4.25;;;;;;;2.11;80.32;101056.28;5015825;28;20026;-22
2022/02/03 07:54:04;;;;;;;6.07;3.58;;;;;;;2.08;80.46;101046.69;5011678;28;20466;-23
2022/02/03 07:56:31;;;;;;;7.47;3.63;;;;;;;2.11;80.46;101046.78;5011969;28;20104;-24
2022/02/03 07:58:57;;;;;;;5.90;4.28;;;;;;;2.14;80.03;101039.03;5034193;28;20028;-22
2022/02/03 08:01:22;;;;;;;7.70;3.45;;;;;;;2.14;80.45;101046.84;5031013;28;20464;-22
2022/02/03 08:03:48;;;;;;;7.60;4.32;;;;;;;2.16;80.52;101040.00;5030799;28;20477;-22
2022/02/03 08:06:20;;;;;;;5.78;4.05;;;;;;;2.17;80.44;101036.53;5031146;28;20021;-22
2022/02/03 08:08:51;;;;;;;9.00;3.83;;;;;;;2.21;80.33;101040.16;5023444;28;20033;-22
2022/02/03 08:11:23;;;;;;;7.55;3.83;;;;;;;2.21;80.45;101029.72;5031137;28;20048;-22
2022/02/03 08:13:57;;;;;;;11.10;4.20;;;;;;;2.25;80.24;101022.88;5023662;28;20029;-23
2022/02/03 08:16:39;;;;;;;8.35;4.07;;;;;;;2.26;80.26;101022.03;5011692;28;20037;-22
2022/02/03 08:21:47;;;;;;;6.57;4.45;;;;;;;2.27;80.73;101011.69;5028457;28;20308;-22
2022/02/03 08:24:25;;;;;;;6.22;4.00;;;;;;;2.33;80.25;101010.97;5012642;28;20022;-22
2022/02/03 08:30:07;;;;;;;5.53;4.13;;;;;;;2.36;80.59;101025.81;5013156;28;20124;-22
2022/02/03 08:32:35;;;;;;;7.38;4.47;;;;;;;2.35;80.57;101018.84;5029045;28;20049;-23
2022/02/03 08:40:24;;;;;;;8.45;4.60;;;;;;;2.43;80.46;101018.25;5030606;28;20026;-22
2022/02/03 08:42:50;;;;;;;8.07;3.95;;;;;;;2.44;80.41;101004.38;5033915;28;20485;-23
2022/02/03 08:45:15;;;;;;;8.70;4.75;;;;;;;2.46;80.40;101000.97;5034983;28;20040;-22
2022/02/03 08:47:41;;;;;;;8.18;4.60;;;;;;;2.49;80.28;101014.03;5034637;28;20478;-22
2022/02/03 08:50:08;;;;;;;9.52;4.65;;;;;;;2.51;79.85;101009.78;5033914;28;20044;-22
2022/02/03 08:53:02;;;;;;;7.70;5.57;;;;;;;2.53;80.01;101008.09;5034459;28;20040;-22
2022/02/03 09:37:34;;;;;;;14.00;6.13;;;;;;;3.04;82.80;100975.66;5007692;28;20121;-23
2022/02/03 09:58:16;;;;;;;9.82;5.35;;;;;;;3.28;80.54;100955.41;5036742;28;20017;-22
2022/02/03 10:03:36;;;;;;;8.80;6.03;;;;;;;3.38;81.65;100953.91;5033365;28;20498;-22
2022/02/03 10:06:07;;;;;;;8.90;5.55;;;;;;;3.42;81.61;100953.13;5033735;28;20025;-22
2022/02/03 10:08:34;;;;;;;13.82;6.07;;;;;;;3.47;82.20;100948.94;5033413;28;20029;-22
2022/02/03 10:11:19;;;;;;;10.80;7.30;;;;;;;3.51;82.79;100956.00;5033004;28;20482;-22
2022/02/03 10:13:53;;;;;;;10.98;6.65;;;;;;;3.56;82.99;100945.66;5033430;28;20030;-22
2022/02/03 10:16:30;;;;;;;14.60;8.15;;;;;;;3.63;83.41;100950.16;5032689;28;20025;-22
2022/02/03 10:19:18;;;;;;;10.27;6.50;;;;;;;3.69;84.70;100939.00;5033155;28;20036;-23
2022/02/03 10:21:47;;;;;;;14.95;7.30;;;;;;;3.76;85.16;100937.44;5032849;28;20043;-22
2022/02/03 10:24:16;;;;;;;10.57;7.13;;;;;;;3.80;85.81;100928.84;5032877;28;20487;-22
2022/02/03 10:26:46;;;;;;;11.95;7.07;;;;;;;3.85;85.10;100929.81;5031805;28;20022;-23
2022/02/03 10:29:19;;;;;;;10.63;6.78;;;;;;;3.90;85.38;100933.41;5026487;28;20048;-23
2022/02/03 10:31:46;;;;;;;13.35;7.60;;;;;;;3.94;85.97;100930.00;5012610;28;20389;-22
2022/02/03 10:34:20;;;;;;;11.10;7.68;;;;;;;4.01;86.00;100925.81;5013524;28;20113;-24
2022/02/03 10:37:12;;;;;;;12.35;8.70;;;;;;;4.06;87.28;100920.69;5022744;28;20370;-22
2022/02/03 10:42:23;;;;;;;13.93;8.13;;;;;;;4.15;85.37;100922.63;5031169;28;20029;-23
2022/02/03 10:53:23;;;;;;;11.88;7.78;;;;;;;4.32;85.01;100905.59;5027903;28;20112;-22
2022/02/03 10:56:10;;;;;;;12.30;8.00;;;;;;;4.38;85.78;100906.56;5016251;28;20041;-23
2022/02/03 10:58:50;;;;;;;12.02;8.15;;;;;;;4.41;86.38;100904.91;5020972;28;20461;-23
2022/02/03 11:06:25;;;;;;;13.65;8.35;;;;;;;4.54;84.99;100894.69;5031939;28;20029;-22
2022/02/03 11:11:32;;;;;;;;;;;;;;;4.59;84.23;100898.25;5032119;28;20025;-23
2022/02/03 11:13:58;;;;;;;12.38;8.45;;;;;;;4.63;85.39;100894.84;5032267;28;20337;-22
2022/02/03 11:16:23;;;;;;;12.73;8.80;;;;;;;4.66;84.97;100894.00;5030910;28;20473;-22
2022/02/03 11:18:49;;;;;;;15.50;9.95;;;;;;;4.71;85.84;100895.88;5030862;28;20017;-22
2022/02/03 11:21:15;;;;;;;16.50;8.52;;;;;;;4.72;85.29;100892.44;5030387;28;20044;-22
2022/02/03 11:23:49;;;;;;;10.68;8.90;;;;;;;4.74;84.53;100885.47;5029803;28;20037;-22
2022/02/03 11:39:38;;;;;;;13.57;9.00;;;;;;;4.91;83.49;100868.34;5031638;28;20025;-22
2022/02/03 11:42:37;;;;;;;12.02;8.15;;;;;;;4.94;83.02;100866.66;5031364;28;20033;-23
2022/02/03 12:23:49;;;;;;;11.98;7.25;;;;;;;5.37;83.53;100797.63;5031550;28;20401;-22
2022/02/03 12:26:31;;;;;;;9.70;6.80;;;;;;;5.39;83.08;100793.25;5026145;28;20014;-23
2022/02/03 12:29:04;;;;;;;10.75;6.78;;;;;;;5.44;84.04;100791.59;5027392;28;20482;-22
2022/02/03 12:42:49;;;;;;;12.60;6.97;;;;;;;5.64;85.76;100757.84;5028202;28;20034;-22
2022/02/03 12:45:33;;;;;;;8.68;7.00;;;;;;;5.67;85.67;100762.22;5030182;28;20046;-22
2022/02/03 12:48:01;;;;;;;10.48;8.10;;;;;;;5.70;85.62;100751.81;5031116;28;20503;-22
2022/02/03 12:50:35;;;;;;;9.90;7.07;;;;;;;5.74;86.01;100748.38;5031066;28;20440;-22
2022/02/03 12:53:01;;;;;;;11.98;7.45;;;;;;;5.76;85.63;100756.22;5030823;28;20034;-22
2022/02/03 12:55:29;;;;;;;10.75;6.85;;;;;;;5.78;85.51;100744.06;5017359;28;20040;-22
2022/02/03 12:57:57;;;;;;;9.45;7.40;;;;;;;5.77;85.12;100743.16;5015495;28;20025;-22
2022/02/03 13:00:33;;;;;;;8.93;6.13;;;;;;;5.83;85.54;100738.88;5036196;28;20173;-25
2022/02/03 13:03:01;;;;;;;8.35;7.38;;;;;;;5.85;85.41;100731.91;5029357;28;20440;-22
2022/02/03 13:05:33;;;;;;;10.38;7.25;;;;;;;5.87;85.49;100723.22;5030674;28;20033;-22
2022/02/03 13:07:59;;;;;;;10.75;7.03;;;;;;;5.89;85.11;100724.13;5030628;28;20067;-22
2022/02/03 13:10:28;;;;;;;10.32;6.85;;;;;;;5.91;85.79;100714.53;5029756;28;20061;-22
2022/02/03 13:13:03;;;;;;;8.30;6.65;;;;;;;5.94;86.20;100713.72;5030344;28;20033;-22
2022/02/03 13:15:36;;;;;;;9.43;6.43;;;;;;;5.95;86.53;100704.09;5014345;28;20259;-22
2022/02/03 13:18:06;;;;;;;7.88;5.97;;;;;;;5.97;85.80;100703.25;5030822;28;20096;-22
2022/02/03 13:21:17;;;;;;;8.63;6.68;;;;;;;5.99;85.47;100701.53;5028951;28;20030;-23
2022/02/03 13:23:27;;;;;;;;;;;;;;;6.02;85.07;100704.19;5027655;28;20123;-22
2022/02/03 13:26:04;;;;;;;8.90;7.13;;;;;;;6.04;85.65;100699.00;5030482;28;19951;-22
2022/02/03 13:28:43;;;;;;;6.82;5.68;;;;;;;6.02;84.93;100701.56;5032366;28;20385;-22
2022/02/03 13:34:13;;;;;;;9.63;6.68;;;;;;;6.06;84.14;100699.88;5014599;28;20024;-22
2022/02/03 13:36:52;;;;;;;11.38;6.25;;;;;;;6.09;85.04;100697.28;5014239;28;20029;-22
2022/02/03 13:39:40;;;;;;;7.82;6.00;;;;;;;6.11;84.15;100690.31;5014296;28;20072;-22
2022/02/03 13:42:13;;;;;;;8.50;6.32;;;;;;;6.15;85.15;100694.75;5013567;28;20528;-22
2022/02/03 13:44:40;;;;;;;8.23;6.65;;;;;;;6.19;85.52;100702.59;5032180;28;20472;-22
2022/02/03 13:47:22;;;;;;;7.30;5.70;;;;;;;6.19;85.60;100695.63;5033893;28;20036;-22
2022/02/03 13:50:15;;;;;;;6.82;5.40;;;;;;;6.20;85.10;100707.88;5033464;28;20124;-22
2022/02/03 14:20:42;;;;;;;7.57;5.45;;;;;;;6.30;84.61;100653.81;5041818;28;20036;-23
2022/02/03 14:28:19;;;;;;;7.43;5.40;;;;;;;6.33;83.80;100650.38;5015585;28;20045;-24
2022/02/03 14:30:48;;;;;;;7.90;5.70;;;;;;;6.34;85.51;100647.72;5014713;28;20021;-23
2022/02/03 14:33:22;;;;;;;5.85;4.85;;;;;;;6.35;85.22;100646.00;5040196;28;20036;-24
2022/02/03 14:35:48;;;;;;;6.78;5.18;;;;;;;6.34;84.19;100636.41;5032201;28;20025;-24
2022/02/03 14:38:22;;;;;;;7.13;4.95;;;;;;;6.35;84.28;100640.75;5032429;28;20087;-24
2022/02/03 14:41:13;;;;;;;6.25;5.18;;;;;;;6.35;84.02;100640.75;5032026;28;20025;-24
2022/02/03 14:43:36;;;;;;;5.85;5.25;;;;;;;6.35;84.17;100640.75;5032486;28;20038;-24
2022/02/03 14:46:03;;;;;;;5.57;4.97;;;;;;;6.34;83.80;100639.03;5033041;28;20036;-24
2022/02/03 14:48:29;;;;;;;6.50;5.10;;;;;;;6.29;83.83;100625.88;5030475;28;20525;-24
2022/02/03 14:50:56;;;;;;;6.00;4.95;;;;;;;6.36;84.18;100637.28;5030996;28;20021;-24
2022/02/03 14:53:47;;;;;;;9.23;5.25;;;;;;;6.35;83.79;100632.91;5031959;28;20047;-24
2022/02/03 14:58:57;;;;;;;6.43;4.85;;;;;;;6.35;83.35;100630.28;5040733;28;20036;-24
2022/02/03 15:01:22;;;;;;;5.75;4.38;;;;;;;6.33;83.09;100629.41;5032177;28;20013;-24
2022/02/03 15:03:51;;;;;;;6.95;5.45;;;;;;;6.34;83.50;100618.06;5031125;28;20033;-23
2022/02/03 15:06:22;;;;;;;6.85;4.93;;;;;;;6.36;83.45;100626.78;5026551;28;20053;-24
2022/02/03 15:08:58;;;;;;;4.95;4.45;;;;;;;6.35;82.78;100625.03;5025893;28;20489;-24
2022/02/03 15:11:42;;;;;;;6.22;5.43;;;;;;;6.36;83.15;100626.78;5028341;28;20029;-24
2022/02/03 15:14:08;;;;;;;6.93;4.88;;;;;;;6.36;83.61;100624.16;5019049;28;20065;-24
2022/02/03 15:16:33;;;;;;;6.63;5.18;;;;;;;6.36;83.48;100605.84;5022298;28;20060;-24
2022/02/03 15:18:59;;;;;;;7.60;5.53;;;;;;;6.36;83.71;100601.47;5030936;28;20025;-24
2022/02/03 15:21:24;;;;;;;6.40;4.65;;;;;;;6.35;83.79;100588.38;5014153;28;20026;-24
2022/02/03 15:23:50;;;;;;;7.45;4.53;;;;;;;6.38;83.97;100591.00;5016690;28;20026;-24
2022/02/03 15:26:16;;;;;;;5.63;4.57;;;;;;;6.34;84.59;100584.88;5029452;28;20029;-24
2022/02/03 15:28:42;;;;;;;5.57;4.82;;;;;;;6.37;83.87;100584.03;5026769;28;20037;-24
2022/02/03 15:31:07;;;;;;;5.20;4.63;;;;;;;6.34;83.03;100571.75;5025612;28;20396;-24
2022/02/03 15:33:33;;;;;;;4.70;4.03;;;;;;;6.35;83.25;100573.53;5031419;28;20029;-24
2022/02/03 15:36:03;;;;;;;5.28;4.45;;;;;;;6.35;82.58;100578.78;5031232;28;20087;-24
2022/02/03 15:38:33;;;;;;;5.47;4.40;;;;;;;6.34;82.79;100571.75;5032430;28;20022;-24
2022/02/03 15:41:02;;;;;;;6.47;4.78;;;;;;;6.36;83.14;100574.41;5031395;28;20032;-24
2022/02/03 15:43:31;;;;;;;5.40;4.63;;;;;;;6.38;83.98;100575.31;5025415;28;20082;-24
2022/02/03 15:46:00;;;;;;;4.90;4.20;;;;;;;6.37;83.43;100576.19;5029054;28;20463;-24
2022/02/03 15:48:36;;;;;;;4.45;4.05;;;;;;;6.37;83.43;100581.41;5031414;28;20164;-24
2022/02/03 16:17:56;;;;;;;5.82;4.20;;;;;;;6.36;84.46;100564.81;5025668;28;20033;-24
2022/02/03 16:20:27;;;;;;;5.75;4.30;;;;;;;6.39;85.08;100574.41;5026085;28;20120;-24
2022/02/03 16:23:04;;;;;;;5.30;4.80;;;;;;;6.37;85.08;100566.56;5025437;28;20032;-24
2022/02/03 16:54:56;;;;;;;;;;;;;;;6.35;83.43;100530.75;5028954;28;20020;-24
2022/02/03 16:57:25;;;;;;;4.60;3.90;;;;;;;6.32;83.63;100534.22;5027450;28;20395;-24
2022/02/03 17:02:20;;;;;;;5.07;4.05;;;;;;;6.30;83.66;100543.78;5026862;28;20030;-24
2022/02/03 17:04:45;;;;;;;5.57;4.60;;;;;;;6.31;84.55;100542.97;5032385;28;20087;-24
2022/02/03 17:07:11;;;;;;;4.97;4.47;;;;;;;6.29;83.87;100542.94;5028277;28;20065;-24
2022/02/03 17:09:38;;;;;;;4.97;4.45;;;;;;;6.31;85.02;100544.69;5029527;28;20029;-24
2022/02/03 17:12:06;;;;;;;5.25;4.53;;;;;;;6.27;84.81;100531.56;5029235;28;20096;-24
2022/02/03 17:14:32;;;;;;;6.00;5.38;;;;;;;6.29;84.57;100536.81;5030597;28;20029;-24
2022/02/03 17:16:58;;;;;;;5.68;5.05;;;;;;;6.29;84.25;100536.81;5030946;28;20477;-24
2022/02/03 17:19:24;;;;;;;6.18;5.00;;;;;;;6.26;83.53;100532.44;5026070;28;20535;-24
2022/02/03 17:21:50;;;;;;;5.80;5.07;;;;;;;6.26;84.49;100534.16;5027640;28;20022;-24
2022/02/03 17:24:15;;;;;;;5.32;4.35;;;;;;;6.26;84.36;100536.78;5031281;28;20036;-24
2022/02/03 17:27:01;;;;;;;5.90;4.65;;;;;;;6.24;84.03;100536.78;5028391;28;20025;-24
2022/02/03 17:30:32;;;;;;;5.53;4.70;;;;;;;6.23;83.72;100524.56;5026066;28;20026;-24
2022/02/03 17:44:58;;;;;;;4.85;4.35;;;;;;;6.23;83.38;100527.19;5021776;28;20046;-24
2022/02/03 18:29:46;;;;;;;6.90;5.25;;;;;;;6.02;82.65;100506.94;5026877;28;20057;-24
2022/02/03 18:51:08;;;;;;;5.90;4.93;;;;;;;5.96;84.42;100486.81;5026243;28;20044;-24
2022/02/03 18:53:40;;;;;;;8.45;5.30;;;;;;;5.94;83.40;100480.72;5026613;28;20052;-24
2022/02/03 18:56:24;;;;;;;6.30;5.18;;;;;;;5.93;83.30;100484.16;5024859;28;20029;-24
2022/02/03 18:59:00;;;;;;;7.07;5.97;;;;;;;5.93;82.99;100475.47;5028685;28;20072;-24
2022/02/03 20:06:24;;;;;;;8.02;5.60;;;;;;;5.74;83.69;100442.16;5022910;28;20036;-24
2022/02/03 20:08:59;;;;;;;6.70;5.13;;;;;;;5.74;83.45;100443.91;5024323;28;20090;-24
2022/02/03 20:11:26;;;;;;;6.20;5.15;;;;;;;5.73;83.03;100437.78;5021383;28;20408;-24
2022/02/03 20:13:52;;;;;;;8.38;6.05;;;;;;;5.74;84.23;100444.78;5026075;28;20041;-24
2022/02/03 20:16:21;;;;;;;6.65;5.40;;;;;;;5.73;84.58;100435.19;5024751;28;20033;-24
2022/02/03 20:18:46;;;;;;;6.68;5.85;;;;;;;5.72;84.49;100436.06;5026902;28;20416;-24
2022/02/03 20:21:12;;;;;;;8.90;6.55;;;;;;;5.72;85.21;100430.81;5022824;28;20017;-24
2022/02/03 20:23:42;;;;;;;7.82;6.35;;;;;;;5.72;85.26;100436.06;5024355;28;20033;-24
2022/02/03 20:26:09;;;;;;;8.10;6.82;;;;;;;5.72;84.66;100429.94;5026704;28;20021;-24
2022/02/03 20:28:35;;;;;;;8.45;6.60;;;;;;;5.71;84.85;100420.34;5022573;28;20025;-24
2022/02/03 20:31:01;;;;;;;8.80;7.15;;;;;;;5.70;85.54;100427.31;5027772;28;20025;-24
2022/02/03 20:33:26;;;;;;;9.32;6.70;;;;;;;5.70;84.88;100429.06;5022551;28;20022;-24
2022/02/03 20:35:52;;;;;;;10.45;7.40;;;;;;;5.70;85.00;100429.06;5025883;28;20037;-24
2022/02/03 20:38:19;;;;;;;10.30;7.35;;;;;;;5.69;85.02;100420.31;5028689;28;20025;-24
2022/02/03 20:40:46;;;;;;;8.15;7.13;;;;;;;5.70;84.89;100427.31;5029380;28;20030;-24
2022/02/03 20:43:12;;;;;;;9.88;7.53;;;;;;;5.67;84.87;100416.81;5031332;28;20485;-24
2022/02/03 20:45:42;;;;;;;8.23;7.10;;;;;;;5.68;84.63;100408.13;5030546;28;20045;-24
2022/02/03 20:48:09;;;;;;;9.43;7.87;;;;;;;5.68;84.93;100407.22;5031259;28;20026;-24
2022/02/03 20:50:40;;;;;;;9.80;8.07;;;;;;;5.65;84.87;100405.47;5027715;28;20060;-24
2022/02/03 20:53:06;;;;;;;11.73;8.40;;;;;;;5.68;85.16;100409.84;5026899;28;20430;-24
2022/02/03 20:55:31;;;;;;;9.77;7.63;;;;;;;5.68;84.95;100413.34;5030467;28;20026;-24
2022/02/03 20:57:58;;;;;;;9.75;7.75;;;;;;;5.66;85.25;100417.69;5032000;28;20040;-24
2022/02/03 21:00:28;;;;;;;10.98;8.05;;;;;;;5.68;85.41;100413.34;5031372;28;20584;-24
2022/02/03 21:03:00;;;;;;;12.38;8.30;;;;;;;5.65;84.91;100414.22;5029043;28;20041;-24
2022/02/03 21:05:26;;;;;;;9.70;7.75;;;;;;;5.64;84.74;100416.81;5030772;28;20025;-24
2022/02/03 21:07:52;;;;;;;10.13;8.18;;;;;;;5.66;85.39;100422.91;5030941;28;20086;-24
2022/02/03 21:10:25;;;;;;;13.60;8.95;;;;;;;5.66;85.12;100420.28;5028130;28;20075;-24
2022/02/03 21:12:54;;;;;;;11.43;8.50;;;;;;;5.63;86.41;100417.66;5027102;28;20030;-25
2022/02/03 21:15:24;;;;;;;11.15;8.98;;;;;;;5.63;85.48;100415.03;5028861;28;20087;-24
2022/02/03 21:17:50;;;;;;;10.85;8.80;;;;;;;5.63;85.19;100410.69;5031861;28;20512;-24
2022/02/03 21:20:18;;;;;;;11.15;8.40;;;;;;;5.64;85.40;100417.66;5030549;28;20104;-24
2022/02/03 21:22:44;;;;;;;10.90;8.88;;;;;;;5.63;85.71;100405.47;5031320;28;20029;-24
2022/02/03 21:25:39;;;;;;;11.32;8.77;;;;;;;5.64;86.29;100411.56;5030868;28;20079;-24
2022/02/03 21:28:09;;;;;;;;;;;;;;;5.63;85.00;100407.19;5031077;28;20039;-24
2022/02/03 21:30:36;;;;;;;10.05;8.10;;;;;;;5.62;85.55;100405.44;5028388;28;19913;-23
2022/02/03 21:33:02;;;;;;;10.65;8.38;;;;;;;5.63;85.25;100415.03;5028815;28;20045;-24
2022/02/03 21:35:29;;;;;;;12.95;10.43;;;;;;;5.62;85.54;100414.19;5032199;28;20036;-24
2022/02/03 21:37:54;;;;;;;11.65;9.40;;;;;;;5.60;85.27;100410.66;5030938;28;20021;-24
2022/02/03 21:40:21;;;;;;;11.90;9.02;;;;;;;5.61;85.69;100419.41;5029461;28;20044;-24
2022/02/03 21:42:47;;;;;;;10.07;8.57;;;;;;;5.60;85.52;100425.50;5028990;28;20033;-24
2022/02/03 21:45:16;;;;;;;10.38;8.13;;;;;;;5.59;85.73;100423.72;5029408;28;20028;-24
2022/02/03 21:47:42;;;;;;;11.40;8.13;;;;;;;5.58;85.49;100417.63;5026640;28;20492;-24
2022/02/03 21:50:08;;;;;;;11.32;9.10;;;;;;;5.60;85.60;100422.88;5030307;28;20029;-24
2022/02/03 21:52:44;;;;;;;11.35;8.85;;;;;;;5.59;85.54;100413.25;5029934;28;20033;-24
2022/02/03 21:55:09;;;;;;;11.80;8.68;;;;;;;5.56;85.90;100424.59;5030138;28;20029;-24
2022/02/03 21:57:40;;;;;;;11.10;8.75;;;;;;;5.56;86.34;100421.97;5029960;28;20017;-24
2022/02/03 22:00:09;;;;;;;12.90;10.27;;;;;;;5.58;86.25;100416.75;5029987;28;20096;-24
2022/02/03 22:02:34;;;;;;;15.02;10.57;;;;;;;5.54;86.57;100422.84;5026603;28;20030;-24
2022/02/03 22:05:01;;;;;;;11.50;10.02;;;;;;;5.58;87.09;100427.22;5027464;28;20073;-24
2022/02/03 22:07:27;;;;;;;13.55;9.85;;;;;;;5.57;86.65;100418.47;5028160;28;20112;-24
2022/02/03 22:09:52;;;;;;;12.10;9.25;;;;;;;5.55;86.10;100427.19;5028562;28;20112;-24
2022/02/03 22:12:18;;;;;;;14.13;10.98;;;;;;;5.56;87.35;100427.19;5028568;28;20033;-24
2022/02/03 22:14:44;;;;;;;15.20;10.73;;;;;;;5.55;88.28;100424.56;5030590;28;20029;-23
2022/02/03 22:17:09;;;;;;;14.02;10.00;;;;;;;5.56;87.56;100423.69;5024728;28;20037;-24
2022/02/03 22:19:38;;;;;;;12.57;10.23;;;;;;;5.54;87.17;100415.88;5031474;28;20067;-24
2022/02/03 22:22:15;;;;;;;13.48;9.73;;;;;;;5.55;86.68;100416.72;5028900;28;20022;-24
2022/02/03 22:48:50;;;;;;;16.42;11.02;;;;;;;5.54;87.43;100410.63;5028914;28;20500;-24
2022/02/03 22:51:16;;;;;;;16.45;11.25;;;;;;;5.51;87.24;100406.22;5023732;28;20041;-24
2022/02/03 22:53:42;;;;;;;14.75;10.35;;;;;;;5.53;87.43;100401.00;5027993;28;20037;-24
2022/02/03 22:56:12;;;;;;;15.20;10.90;;;;;;;5.52;87.10;100391.41;5029804;28;20540;-24
2022/02/03 23:01:23;;;;;;;14.52;11.02;;;;;;;5.52;87.25;100399.28;5026444;28;20036;-24
2022/02/03 23:03:49;;;;;;;15.50;11.20;;;;;;;5.51;86.97;100411.47;5027934;28;20029;-24
2022/02/03 23:06:14;;;;;;;15.73;11.38;;;;;;;5.52;87.45;100412.34;5028077;28;20025;-24
2022/02/03 23:11:28;;;;;;;18.45;12.27;;;;;;;5.51;86.70;100408.84;5029378;28;20131;-24